createdAt,value
2023-04-18T00:01:00.148Z,7.90
2023-04-18T00:06:02.259Z,8.00
2023-04-18T00:11:04.072Z,7.90
2023-04-18T00:16:07.726Z,7.90
2023-04-18T00:21:09.602Z,7.90
2023-04-18T00:26:11.517Z,7.90
2023-04-18T00:31:14.836Z,7.80
2023-04-18T00:36:16.689Z,7.80
2023-04-18T00:41:21.788Z,7.80
2023-04-18T00:46:23.627Z,7.70
2023-04-18T00:51:25.770Z,7.60
2023-04-18T00:56:27.851Z,7.60
2023-04-18T01:01:29.644Z,7.60
2023-04-18T01:06:31.983Z,7.60
2023-04-18T01:11:33.770Z,7.60
2023-04-18T01:16:37.091Z,7.60
2023-04-18T01:21:43.693Z,7.60
2023-04-18T01:26:48.215Z,7.60
2023-04-18T01:31:50.320Z,7.60
2023-04-18T01:36:52.117Z,7.50
2023-04-18T01:41:53.936Z,7.50
2023-04-18T01:46:55.808Z,7.40
2023-04-18T01:51:57.716Z,7.30
2023-04-18T01:56:59.490Z,7.20
2023-04-18T02:02:01.398Z,7.10
2023-04-18T02:07:03.331Z,7.00
2023-04-18T02:12:05.426Z,6.90
2023-04-18T02:17:07.254Z,6.80
2023-04-18T02:22:09.023Z,6.60
2023-04-18T02:27:11.194Z,6.50
2023-04-18T02:32:13.158Z,6.50
2023-04-18T02:37:18.328Z,6.40
2023-04-18T02:42:20.300Z,6.30
2023-04-18T02:47:22.096Z,6.20
2023-04-18T02:52:25.681Z,6.10
2023-04-18T02:57:27.558Z,6.00
2023-04-18T03:02:38.526Z,5.70
2023-04-18T03:07:55.318Z,5.50
2023-04-18T03:12:57.288Z,5.50
2023-04-18T03:18:00.192Z,5.40
2023-04-18T03:23:06.626Z,5.30
2023-04-18T03:28:09.964Z,5.30
2023-04-18T03:33:14.760Z,5.20
2023-04-18T03:38:17.625Z,5.20
2023-04-18T03:43:20.989Z,5.10
2023-04-18T03:48:22.999Z,5.20
2023-04-18T03:53:25.460Z,5.40
2023-04-18T03:58:27.451Z,5.40
2023-04-18T04:03:30.440Z,5.40
2023-04-18T04:08:34.093Z,5.30
2023-04-18T04:13:36.720Z,5.30
2023-04-18T04:18:38.732Z,5.30
2023-04-18T04:23:42.382Z,5.30
2023-04-18T04:28:48.579Z,5.20
2023-04-18T04:33:55.618Z,5.10
2023-04-18T04:38:59.115Z,5.20
2023-04-18T04:44:09.509Z,5.10
2023-04-18T04:49:12.109Z,5.20
2023-04-18T04:54:14.449Z,5.20
2023-04-18T04:59:16.771Z,5.20
2023-04-18T05:04:20.484Z,5.40
2023-04-18T05:09:22.381Z,5.50
2023-04-18T05:14:24.157Z,5.60
2023-04-18T05:19:25.920Z,5.70
2023-04-18T05:24:27.727Z,5.80
2023-04-18T05:29:29.586Z,5.90
2023-04-18T05:34:31.793Z,6.00
2023-04-18T05:39:33.675Z,6.10
2023-04-18T05:44:35.861Z,6.20
2023-04-18T05:49:37.648Z,6.30
2023-04-18T05:54:39.396Z,6.50
2023-04-18T05:59:41.210Z,6.60
2023-04-18T06:04:43.314Z,6.70
2023-04-18T06:09:45.401Z,7.00
2023-04-18T06:14:47.155Z,7.10
2023-04-18T06:19:48.899Z,7.20
2023-04-18T06:24:51.063Z,7.30
2023-04-18T06:29:52.778Z,7.40
2023-04-18T06:34:54.541Z,7.50
2023-04-18T06:39:56.417Z,7.60
2023-04-18T06:44:58.160Z,7.70
2023-04-18T06:49:59.885Z,7.70
2023-04-18T06:55:01.637Z,7.70
2023-04-18T07:00:05.159Z,7.80
2023-04-18T07:05:07.528Z,7.90
2023-04-18T07:10:11.219Z,7.90
2023-04-18T07:15:13.051Z,8.00
2023-04-18T07:20:14.830Z,8.00
2023-04-18T07:25:16.676Z,8.10
2023-04-18T07:30:18.896Z,8.10
2023-04-18T07:35:21.645Z,8.20
2023-04-18T07:40:23.428Z,8.20
2023-04-18T07:45:25.734Z,8.30
2023-04-18T07:50:27.857Z,8.30
2023-04-18T07:55:30.650Z,8.50
2023-04-18T08:00:32.793Z,8.60
2023-04-18T08:05:34.828Z,8.60
2023-04-18T08:10:37.586Z,8.70
2023-04-18T08:15:40.426Z,8.90
2023-04-18T08:20:42.202Z,9.00
2023-04-18T08:25:44.147Z,9.10
2023-04-18T08:30:49.088Z,9.10
2023-04-18T08:35:54.270Z,9.20
2023-04-18T08:40:56.054Z,9.20
2023-04-18T08:45:59.800Z,9.20
2023-04-18T08:51:02.100Z,9.20
2023-04-18T08:56:05.435Z,9.30
2023-04-18T09:01:07.556Z,9.30
2023-04-18T09:06:19.381Z,9.30
2023-04-18T09:11:29.265Z,9.40
2023-04-18T09:16:46.860Z,9.40
2023-04-18T09:22:01.267Z,9.50
2023-04-18T09:27:04.001Z,9.50
2023-04-18T09:32:05.774Z,9.50
2023-04-18T09:37:14.370Z,9.50
2023-04-18T09:42:16.386Z,9.50
2023-04-18T09:47:18.201Z,9.50
2023-04-18T09:52:21.072Z,9.50
2023-04-18T09:57:28.608Z,9.50
2023-04-18T10:02:39.922Z,9.50
2023-04-18T10:07:45.284Z,9.50
2023-04-18T10:12:48.684Z,9.50
2023-04-18T10:18:05.142Z,9.50
2023-04-18T10:23:48.855Z,9.50
2023-04-18T10:28:54.639Z,9.50
2023-04-18T10:34:05.119Z,9.50
2023-04-18T10:39:25.415Z,9.50
2023-04-18T10:44:27.560Z,9.40
2023-04-18T10:49:32.866Z,9.40
2023-04-18T10:54:55.202Z,9.40
2023-04-18T10:59:58.139Z,9.40
2023-04-18T11:05:02.140Z,9.40
2023-04-18T11:10:05.483Z,9.40
2023-04-18T11:15:11.592Z,9.50
2023-04-18T11:20:14.881Z,9.60
2023-04-18T11:25:17.940Z,9.60
2023-04-18T11:30:19.794Z,9.70
2023-04-18T11:35:21.618Z,9.70
2023-04-18T11:40:23.531Z,9.70
2023-04-18T11:45:25.862Z,9.70
2023-04-18T11:50:27.797Z,9.80
2023-04-18T11:55:29.625Z,9.90
2023-04-18T12:00:44.342Z,10.10
2023-04-18T12:05:46.697Z,10.20
2023-04-18T12:10:53.555Z,10.30
2023-04-18T12:15:55.454Z,10.40
2023-04-18T12:20:58.596Z,10.50
2023-04-18T12:26:08.045Z,10.40
2023-04-18T12:31:09.866Z,10.20
2023-04-18T12:36:11.760Z,10.40
2023-04-18T12:41:13.559Z,10.60
2023-04-18T12:46:15.364Z,10.70
2023-04-18T12:51:17.222Z,10.80
2023-04-18T12:56:19.089Z,10.90
2023-04-18T13:01:20.935Z,10.90
2023-04-18T13:06:24.433Z,10.90
2023-04-18T13:11:28.555Z,11.00
2023-04-18T13:16:30.777Z,11.10
2023-04-18T13:21:32.549Z,11.00
2023-04-18T13:26:35.995Z,11.00
2023-04-18T13:31:37.819Z,10.90
2023-04-18T13:36:39.662Z,11.00
2023-04-18T13:41:42.055Z,11.00
2023-04-18T13:46:43.804Z,10.90
2023-04-18T13:51:46.471Z,10.70
2023-04-18T13:56:48.270Z,10.60
2023-04-18T14:01:50.229Z,10.80
2023-04-18T14:06:52.078Z,11.20
2023-04-18T14:11:53.844Z,11.30
2023-04-18T14:16:55.626Z,11.40
2023-04-18T14:21:57.479Z,11.50
2023-04-18T14:26:59.229Z,11.70
2023-04-18T14:32:01.403Z,11.60
2023-04-18T14:37:03.575Z,11.40
2023-04-18T14:42:05.503Z,11.30
2023-04-18T14:47:07.252Z,11.20
2023-04-18T14:52:09.129Z,11.00
2023-04-18T14:57:12.737Z,11.00
2023-04-18T15:02:14.570Z,10.90
2023-04-18T15:07:16.703Z,10.90
2023-04-18T15:12:18.506Z,10.80
2023-04-18T15:17:20.287Z,10.80
2023-04-18T15:22:22.762Z,10.80
2023-04-18T15:27:24.557Z,10.60
2023-04-18T15:32:26.675Z,10.60
2023-04-18T15:37:28.687Z,10.60
2023-04-18T15:42:30.537Z,10.60
2023-04-18T15:47:34.010Z,10.50
2023-04-18T15:52:36.659Z,10.50
2023-04-18T15:57:38.636Z,10.60
2023-04-18T16:02:40.441Z,10.70
2023-04-18T16:07:42.676Z,10.80
2023-04-18T16:12:45.011Z,10.70
2023-04-18T16:17:46.896Z,10.70
2023-04-18T16:22:49.017Z,10.80
2023-04-18T16:27:51.019Z,10.70
2023-04-18T16:32:53.148Z,10.60
2023-04-18T16:37:55.012Z,10.60
2023-04-18T16:42:57.387Z,10.50
2023-04-18T16:47:59.232Z,10.40
2023-04-18T16:53:01.667Z,10.30
2023-04-18T16:58:03.580Z,10.20
2023-04-18T17:03:07.281Z,10.20
2023-04-18T17:08:09.214Z,10.10
2023-04-18T17:13:11.159Z,10.00
2023-04-18T17:18:12.977Z,9.90
2023-04-18T17:23:14.952Z,9.90
2023-04-18T17:28:16.838Z,9.80
2023-04-18T17:33:18.734Z,9.80
2023-04-18T17:38:20.527Z,9.70
2023-04-18T17:43:22.365Z,9.70
2023-04-18T17:48:24.307Z,9.60
2023-04-18T17:53:26.790Z,9.60
2023-04-18T17:58:28.615Z,9.60
2023-04-18T18:03:30.510Z,9.60
2023-04-18T18:08:32.496Z,9.50
2023-04-18T18:13:35.546Z,9.50
2023-04-18T18:18:38.072Z,9.50
2023-04-18T18:23:41.318Z,9.40
2023-04-18T18:28:43.101Z,9.30
2023-04-18T18:33:45.244Z,9.30
2023-04-18T18:38:47.157Z,9.20
2023-04-18T18:43:49.865Z,9.20
2023-04-18T18:48:51.958Z,9.20
2023-04-18T18:53:55.158Z,9.20
2023-04-18T18:58:56.994Z,9.20
2023-04-18T19:03:59.385Z,9.10
2023-04-18T19:09:01.359Z,9.10
2023-04-18T19:14:03.409Z,9.10
2023-04-18T19:19:05.321Z,9.10
2023-04-18T19:24:07.144Z,9.10
2023-04-18T19:29:11.040Z,9.10
2023-04-18T19:34:13.581Z,9.10
2023-04-18T19:39:16.741Z,9.10
2023-04-18T19:44:18.602Z,9.20
2023-04-18T19:49:22.471Z,9.10
2023-04-18T19:54:24.449Z,9.10
2023-04-18T19:59:26.763Z,9.10
2023-04-18T20:04:28.888Z,9.10
2023-04-18T20:09:31.246Z,9.10
2023-04-18T20:14:33.403Z,9.10
2023-04-18T20:19:35.693Z,9.10
2023-04-18T20:24:39.423Z,9.20
2023-04-18T20:29:41.358Z,9.20
2023-04-18T20:34:43.477Z,9.20
2023-04-18T20:39:45.668Z,9.10
2023-04-18T20:44:47.789Z,9.20
2023-04-18T20:49:49.873Z,9.20
2023-04-18T20:54:51.655Z,9.20
2023-04-18T20:59:54.592Z,9.20
2023-04-18T21:04:59.104Z,9.10
2023-04-18T21:10:00.869Z,9.20
2023-04-18T21:15:02.740Z,9.10
2023-04-18T21:20:04.839Z,9.10
2023-04-18T21:25:07.609Z,9.10
2023-04-18T21:30:09.535Z,9.10
2023-04-18T21:35:11.741Z,9.00
2023-04-18T21:40:14.312Z,9.00
2023-04-18T21:45:16.241Z,9.00
2023-04-18T21:50:18.198Z,9.00
2023-04-18T21:55:20.150Z,9.00
2023-04-18T22:00:21.951Z,9.00
2023-04-18T22:05:26.192Z,8.90
2023-04-18T22:10:28.012Z,9.00
2023-04-18T22:15:30.207Z,9.00
2023-04-18T22:20:33.580Z,8.90
2023-04-18T22:25:35.500Z,8.90
2023-04-18T22:30:37.285Z,8.70
2023-04-18T22:35:39.062Z,8.60
2023-04-18T22:40:40.783Z,8.30
2023-04-18T22:45:42.677Z,8.30
2023-04-18T22:50:46.210Z,8.20
2023-04-18T22:55:48.026Z,8.40
2023-04-18T23:00:50.259Z,8.40
2023-04-18T23:05:52.437Z,8.40
2023-04-18T23:10:54.370Z,8.30
2023-04-18T23:15:56.188Z,8.20
2023-04-18T23:21:00.015Z,8.10
2023-04-18T23:26:01.817Z,8.00
2023-04-18T23:31:03.601Z,8.00
2023-04-18T23:36:06.498Z,7.90
2023-04-18T23:41:08.811Z,8.00
2023-04-18T23:46:12.042Z,7.90
2023-04-18T23:51:13.856Z,7.80
2023-04-18T23:56:15.865Z,7.70
